createdAt,value
2022-10-12T00:00:14.531Z,23.50
2022-10-12T00:01:11.754Z,29.35
2022-10-12T00:02:08.461Z,25.13
2022-10-12T00:03:05.196Z,19.45
2022-10-12T00:04:01.823Z,20.48
2022-10-12T00:04:58.457Z,20.58
2022-10-12T00:06:23.261Z,19.90
2022-10-12T00:07:19.853Z,14.13
2022-10-12T00:08:16.612Z,13.50
2022-10-12T00:09:13.169Z,15.38
2022-10-12T00:10:09.827Z,11.80
2022-10-12T00:11:11.595Z,13.02
2022-10-12T00:12:08.188Z,15.18
2022-10-12T00:13:04.751Z,12.38
2022-10-12T00:14:01.645Z,11.07
2022-10-12T00:14:58.400Z,11.10
2022-10-12T00:15:55.153Z,15.32
2022-10-12T00:16:51.771Z,12.82
2022-10-12T00:17:48.334Z,9.23
2022-10-12T00:18:45.031Z,12.18
2022-10-12T00:19:41.618Z,10.85
2022-10-12T00:20:38.927Z,13.05
2022-10-12T00:21:35.565Z,18.13
2022-10-12T00:22:32.360Z,11.80
2022-10-12T00:23:30.567Z,11.63
2022-10-12T00:24:27.202Z,13.73
2022-10-12T00:25:23.787Z,11.02
2022-10-12T00:26:22.375Z,9.55
2022-10-12T00:27:18.940Z,9.63
2022-10-12T00:28:17.130Z,15.20
2022-10-12T00:29:15.475Z,12.13
2022-10-12T00:30:15.721Z,10.75
2022-10-12T00:31:17.806Z,15.75
2022-10-12T00:32:15.853Z,11.68
2022-10-12T00:33:15.282Z,11.05
2022-10-12T00:34:13.175Z,12.55
2022-10-12T00:35:11.546Z,13.80
2022-10-12T00:36:21.536Z,10.00
2022-10-12T00:37:19.213Z,10.98
2022-10-12T00:38:16.086Z,10.43
2022-10-12T00:39:13.158Z,14.98
2022-10-12T00:40:10.487Z,11.25
2022-10-12T00:41:07.166Z,14.70
2022-10-12T00:42:03.994Z,10.52
2022-10-12T00:43:00.617Z,11.30
2022-10-12T00:43:58.716Z,12.15
2022-10-12T00:44:55.674Z,15.15
2022-10-12T00:45:52.508Z,12.02
2022-10-12T00:46:49.139Z,10.77
2022-10-12T00:47:52.329Z,13.50
2022-10-12T00:48:56.525Z,12.00
2022-10-12T00:50:20.643Z,11.10
2022-10-12T00:51:20.622Z,12.40
2022-10-12T00:52:21.864Z,13.02
2022-10-12T00:53:23.109Z,9.88
2022-10-12T00:54:29.211Z,12.15
2022-10-12T00:55:29.512Z,13.02
2022-10-12T00:56:29.928Z,12.02
2022-10-12T00:57:26.717Z,13.15
2022-10-12T00:58:23.693Z,10.70
2022-10-12T00:59:27.246Z,12.82
2022-10-12T01:00:23.943Z,11.93
2022-10-12T01:01:21.941Z,10.65
2022-10-12T01:02:19.580Z,13.48
2022-10-12T01:03:21.235Z,10.60
2022-10-12T01:04:17.882Z,15.82
2022-10-12T01:05:15.139Z,9.38
2022-10-12T01:06:12.018Z,11.00
2022-10-12T01:07:08.633Z,15.15
2022-10-12T01:08:05.404Z,10.60
2022-10-12T01:09:03.529Z,13.88
2022-10-12T01:10:00.136Z,13.68
2022-10-12T01:10:56.803Z,10.95
2022-10-12T01:11:53.561Z,12.02
2022-10-12T01:12:50.467Z,9.68
2022-10-12T01:13:47.015Z,11.60
2022-10-12T01:14:43.718Z,15.02
2022-10-12T01:16:19.748Z,10.32
2022-10-12T01:17:59.664Z,12.90
2022-10-12T01:19:24.372Z,10.73
2022-10-12T01:20:40.049Z,11.88
2022-10-12T01:21:45.837Z,11.95
2022-10-12T01:22:54.653Z,9.60
2022-10-12T01:24:15.565Z,13.73
2022-10-12T01:25:51.015Z,10.43
2022-10-12T01:27:20.132Z,11.63
2022-10-12T01:28:27.327Z,10.00
2022-10-12T01:30:01.743Z,14.00
2022-10-12T01:31:16.810Z,9.65
2022-10-12T01:32:21.970Z,15.27
2022-10-12T01:33:53.793Z,11.00
2022-10-12T01:34:58.389Z,10.93
2022-10-12T01:36:13.975Z,10.52
2022-10-12T01:37:21.408Z,13.00
2022-10-12T01:38:32.320Z,12.48
2022-10-12T01:39:41.297Z,14.20
2022-10-12T01:40:45.348Z,10.77
2022-10-12T01:41:51.188Z,10.10
2022-10-12T01:42:48.566Z,12.82
2022-10-12T01:43:45.843Z,11.05
2022-10-12T01:44:42.989Z,13.88
2022-10-12T01:45:39.732Z,25.65
2022-10-12T01:46:40.561Z,25.20
2022-10-12T01:47:40.128Z,31.05
2022-10-12T01:48:37.013Z,32.30
2022-10-12T01:49:35.777Z,23.13
2022-10-12T01:50:45.545Z,22.60
2022-10-12T01:52:03.351Z,23.42
2022-10-12T01:53:08.738Z,19.98
2022-10-12T01:54:11.505Z,20.52
2022-10-12T01:55:30.134Z,29.38
2022-10-12T01:56:42.416Z,35.88
2022-10-12T01:58:00.300Z,59.97
2022-10-12T01:59:08.972Z,117.78
2022-10-12T02:00:07.363Z,178.05
2022-10-12T02:01:35.038Z,166.18
2022-10-12T02:02:40.541Z,168.45
2022-10-12T02:04:06.454Z,195.00
2022-10-12T02:05:14.861Z,155.20
2022-10-12T02:06:16.152Z,158.52
2022-10-12T02:07:22.638Z,153.93
2022-10-12T02:08:40.407Z,132.23
2022-10-12T02:09:38.576Z,108.60
2022-10-12T02:10:51.002Z,142.25
2022-10-12T02:11:52.495Z,136.90
2022-10-12T02:12:50.269Z,148.30
2022-10-12T02:14:12.607Z,155.98
2022-10-12T02:15:11.954Z,169.55
2022-10-12T02:16:13.655Z,144.57
2022-10-12T02:17:14.574Z,140.05
2022-10-12T02:18:18.376Z,159.00
2022-10-12T02:19:21.695Z,169.48
2022-10-12T02:20:19.812Z,136.52
2022-10-12T02:21:21.204Z,81.88
2022-10-12T02:22:18.437Z,69.95
2022-10-12T02:23:15.716Z,54.65
2022-10-12T02:24:14.085Z,35.08
2022-10-12T02:25:15.580Z,43.67
2022-10-12T02:26:13.989Z,39.13
2022-10-12T02:27:14.146Z,25.58
2022-10-12T02:28:15.153Z,25.27
2022-10-12T02:29:16.048Z,20.00
2022-10-12T02:30:13.035Z,20.75
2022-10-12T02:31:38.060Z,23.35
2022-10-12T02:32:44.889Z,25.20
2022-10-12T02:34:16.565Z,27.85
2022-10-12T02:35:38.620Z,26.98
2022-10-12T02:36:44.005Z,20.30
2022-10-12T02:37:44.895Z,13.32
2022-10-12T02:39:03.716Z,16.27
2022-10-12T02:40:10.580Z,19.63
2022-10-12T02:41:15.830Z,19.90
2022-10-12T02:42:17.580Z,17.30
2022-10-12T02:43:20.702Z,13.27
2022-10-12T02:44:23.945Z,14.80
2022-10-12T02:45:24.069Z,13.80
2022-10-12T02:46:25.303Z,13.65
2022-10-12T02:47:26.642Z,10.60
2022-10-12T02:48:25.279Z,13.35
2022-10-12T02:49:26.064Z,15.02
2022-10-12T02:50:24.657Z,14.02
2022-10-12T02:51:22.152Z,15.32
2022-10-12T02:52:18.777Z,16.92
2022-10-12T02:53:16.593Z,22.27
2022-10-12T02:54:13.421Z,13.85
2022-10-12T02:55:11.424Z,24.13
2022-10-12T02:56:12.384Z,25.30
2022-10-12T02:57:08.997Z,25.33
2022-10-12T02:58:05.604Z,23.10
2022-10-12T02:59:02.155Z,28.17
2022-10-12T02:59:58.936Z,28.92
2022-10-12T03:00:55.705Z,38.70
2022-10-12T03:01:52.280Z,31.10
2022-10-12T03:02:48.992Z,38.30
2022-10-12T03:03:46.354Z,35.92
2022-10-12T03:04:42.985Z,28.77
2022-10-12T03:05:39.580Z,25.52
2022-10-12T03:06:36.187Z,21.73
2022-10-12T03:07:32.772Z,29.58
2022-10-12T03:08:29.582Z,22.10
2022-10-12T03:09:26.170Z,17.33
2022-10-12T03:10:22.728Z,21.33
2022-10-12T03:11:19.317Z,15.02
2022-10-12T03:12:15.909Z,12.38
2022-10-12T03:13:12.586Z,13.15
2022-10-12T03:14:11.526Z,15.52
2022-10-12T03:15:08.495Z,13.98
2022-10-12T03:16:07.452Z,16.85
2022-10-12T03:17:05.026Z,11.48
2022-10-12T03:18:01.681Z,13.27
2022-10-12T03:18:58.672Z,13.73
2022-10-12T03:19:55.341Z,15.20
2022-10-12T03:20:51.947Z,18.08
2022-10-12T03:21:48.531Z,20.48
2022-10-12T03:22:45.219Z,19.45
2022-10-12T03:23:41.905Z,30.02
2022-10-12T03:24:38.552Z,41.97
2022-10-12T03:25:35.132Z,51.33
2022-10-12T03:26:31.722Z,39.47
2022-10-12T03:27:28.362Z,27.92
2022-10-12T03:28:25.068Z,25.85
2022-10-12T03:29:21.687Z,26.15
2022-10-12T03:30:18.333Z,30.40
2022-10-12T03:31:14.955Z,34.42
2022-10-12T03:32:11.618Z,25.38
2022-10-12T03:33:08.190Z,21.25
2022-10-12T03:34:05.012Z,16.80
2022-10-12T03:35:01.631Z,11.63
2022-10-12T03:35:58.339Z,11.35
2022-10-12T03:36:54.897Z,12.88
2022-10-12T03:37:51.434Z,14.55
2022-10-12T03:38:47.983Z,14.05
2022-10-12T03:39:44.679Z,12.50
2022-10-12T03:40:41.941Z,10.38
2022-10-12T03:41:38.547Z,12.05
2022-10-12T03:42:35.115Z,11.65
2022-10-12T03:43:31.708Z,14.05
2022-10-12T03:44:28.292Z,12.82
2022-10-12T03:45:25.066Z,17.15
2022-10-12T03:46:21.674Z,24.58
2022-10-12T03:47:18.350Z,21.80
2022-10-12T03:48:14.927Z,14.02
2022-10-12T03:49:11.508Z,14.88
2022-10-12T03:50:08.500Z,14.40
2022-10-12T03:51:05.256Z,17.63
2022-10-12T03:52:01.906Z,17.02
2022-10-12T03:52:58.451Z,13.75
2022-10-12T03:53:55.021Z,15.85
2022-10-12T03:54:51.576Z,19.25
2022-10-12T03:55:48.159Z,25.42
2022-10-12T03:56:44.749Z,18.75
2022-10-12T03:57:41.357Z,21.23
2022-10-12T03:58:37.886Z,22.42
2022-10-12T03:59:34.420Z,18.50
2022-10-12T04:00:31.180Z,18.50
2022-10-12T04:01:27.935Z,15.90
2022-10-12T04:02:24.498Z,18.63
2022-10-12T04:03:21.694Z,26.77
2022-10-12T04:04:18.299Z,17.95
2022-10-12T04:05:14.963Z,16.45
2022-10-12T04:06:11.558Z,14.23
2022-10-12T04:07:08.364Z,16.13
2022-10-12T04:08:05.175Z,19.05
2022-10-12T04:09:01.842Z,11.65
2022-10-12T04:09:58.437Z,13.98
2022-10-12T04:10:54.999Z,13.50
2022-10-12T04:11:51.602Z,11.95
2022-10-12T04:12:48.253Z,13.85
2022-10-12T04:13:44.823Z,13.35
2022-10-12T04:14:41.452Z,14.15
2022-10-12T04:15:38.015Z,16.85
2022-10-12T04:16:34.575Z,16.05
2022-10-12T04:17:31.223Z,16.85
2022-10-12T04:18:27.802Z,16.60
2022-10-12T04:19:24.443Z,15.98
2022-10-12T04:20:21.149Z,17.45
2022-10-12T04:21:25.705Z,15.43
2022-10-12T04:22:24.061Z,16.50
2022-10-12T04:23:20.677Z,13.30
2022-10-12T04:24:17.330Z,14.75
2022-10-12T04:25:13.908Z,9.20
2022-10-12T04:26:10.533Z,19.17
2022-10-12T04:27:07.369Z,15.25
2022-10-12T04:28:03.963Z,11.75
2022-10-12T04:29:00.469Z,13.90
2022-10-12T04:29:57.093Z,12.18
2022-10-12T04:30:53.670Z,13.48
2022-10-12T04:31:50.353Z,16.83
2022-10-12T04:32:46.964Z,12.25
2022-10-12T04:33:43.542Z,14.07
2022-10-12T04:34:40.286Z,13.73
2022-10-12T04:35:37.256Z,15.13
2022-10-12T04:36:33.814Z,13.32
2022-10-12T04:37:30.357Z,17.45
2022-10-12T04:38:26.941Z,17.00
2022-10-12T04:39:23.841Z,15.23
2022-10-12T04:40:20.435Z,14.13
2022-10-12T04:41:17.124Z,11.10
2022-10-12T04:42:13.690Z,11.75
2022-10-12T04:43:10.228Z,16.35
2022-10-12T04:44:07.372Z,16.50
2022-10-12T04:45:04.652Z,14.05
2022-10-12T04:46:01.270Z,13.05
2022-10-12T04:46:57.837Z,12.77
2022-10-12T04:47:54.507Z,11.60
2022-10-12T04:48:51.316Z,12.77
2022-10-12T04:49:47.880Z,13.82
2022-10-12T04:50:44.430Z,14.98
2022-10-12T04:51:40.992Z,10.85
2022-10-12T04:52:38.805Z,17.20
2022-10-12T04:53:35.555Z,13.45
2022-10-12T04:54:32.941Z,11.57
2022-10-12T04:55:29.538Z,13.77
2022-10-12T04:56:26.565Z,15.82
2022-10-12T04:57:23.243Z,11.77
2022-10-12T04:58:19.866Z,12.90
2022-10-12T04:59:16.474Z,12.10
2022-10-12T05:00:13.483Z,15.77
2022-10-12T05:01:10.333Z,12.68
2022-10-12T05:02:07.249Z,14.65
2022-10-12T05:03:05.194Z,16.52
2022-10-12T05:04:01.900Z,16.67
2022-10-12T05:04:58.475Z,12.88
2022-10-12T05:05:56.581Z,20.40
2022-10-12T05:06:53.432Z,28.08
2022-10-12T05:07:50.095Z,32.63
2022-10-12T05:08:46.695Z,25.67
2022-10-12T05:09:43.326Z,22.67
2022-10-12T05:10:40.878Z,31.70
2022-10-12T05:11:37.525Z,29.65
2022-10-12T05:12:34.114Z,26.85
2022-10-12T05:13:30.846Z,25.92
2022-10-12T05:14:30.066Z,25.08
2022-10-12T05:16:26.508Z,15.90
2022-10-12T05:17:23.247Z,20.17
2022-10-12T05:18:19.939Z,19.92
2022-10-12T05:19:16.558Z,22.98
2022-10-12T05:20:13.510Z,24.13
2022-10-12T05:21:10.183Z,19.58
2022-10-12T05:22:06.848Z,21.45
2022-10-12T05:23:03.795Z,17.42
2022-10-12T05:24:00.373Z,21.60
2022-10-12T05:24:56.948Z,21.70
2022-10-12T05:25:56.218Z,28.50
2022-10-12T05:26:52.919Z,29.42
2022-10-12T05:27:49.575Z,30.65
2022-10-12T05:28:46.209Z,28.30
2022-10-12T05:29:43.007Z,34.28
2022-10-12T05:30:39.896Z,27.63
2022-10-12T05:31:36.456Z,30.40
2022-10-12T05:32:33.077Z,29.40
2022-10-12T05:33:30.229Z,29.75
2022-10-12T05:34:26.882Z,28.80
2022-10-12T05:35:23.667Z,32.90
2022-10-12T05:36:20.309Z,25.23
2022-10-12T05:37:16.954Z,24.02
2022-10-12T05:38:13.527Z,23.92
2022-10-12T05:39:10.179Z,22.42
2022-10-12T05:40:07.582Z,20.33
2022-10-12T05:41:04.301Z,26.85
2022-10-12T05:42:00.908Z,25.83
2022-10-12T05:42:57.453Z,27.83
2022-10-12T05:43:54.024Z,25.40
2022-10-12T05:44:51.698Z,21.30
2022-10-12T05:45:48.412Z,20.60
2022-10-12T05:46:45.137Z,22.10
2022-10-12T05:47:43.189Z,20.23
2022-10-12T05:48:40.044Z,16.38
2022-10-12T05:49:36.676Z,18.33
2022-10-12T05:50:33.339Z,15.63
2022-10-12T05:51:29.900Z,20.50
2022-10-12T05:52:26.517Z,17.02
2022-10-12T05:53:23.582Z,16.88
2022-10-12T05:54:20.185Z,16.88
2022-10-12T05:55:16.852Z,16.98
2022-10-12T05:56:13.686Z,15.70
2022-10-12T05:57:10.235Z,16.38
2022-10-12T05:58:06.795Z,17.85
2022-10-12T05:59:04.136Z,14.20
2022-10-12T06:00:00.751Z,16.00
2022-10-12T06:01:08.375Z,14.73
2022-10-12T06:02:05.042Z,18.15
2022-10-12T06:03:01.643Z,11.90
2022-10-12T06:03:58.233Z,13.45
2022-10-12T06:04:54.831Z,15.00
2022-10-12T06:05:51.387Z,13.80
2022-10-12T06:06:47.973Z,12.77
2022-10-12T06:07:44.590Z,16.17
2022-10-12T06:08:41.190Z,15.75
2022-10-12T06:09:40.709Z,15.93
2022-10-12T06:11:40.882Z,18.67
2022-10-12T06:12:37.674Z,14.50
2022-10-12T06:13:34.457Z,14.02
2022-10-12T06:14:31.007Z,15.07
2022-10-12T06:15:27.719Z,14.82
2022-10-12T06:16:24.364Z,15.10
2022-10-12T06:17:21.060Z,14.88
2022-10-12T06:18:18.321Z,17.02
2022-10-12T06:19:14.895Z,17.13
2022-10-12T06:20:11.638Z,19.75
2022-10-12T06:21:32.054Z,15.65
2022-10-12T06:22:24.885Z,18.23
2022-10-12T06:23:22.436Z,17.52
2022-10-12T06:24:19.007Z,17.02
2022-10-12T06:25:15.753Z,18.13
2022-10-12T06:26:12.564Z,21.38
2022-10-12T06:27:09.245Z,21.13
2022-10-12T06:28:05.823Z,26.65
2022-10-12T06:29:02.609Z,37.20
2022-10-12T06:29:59.174Z,41.42
2022-10-12T06:30:58.613Z,58.22
2022-10-12T06:31:55.326Z,48.42
2022-10-12T06:32:51.907Z,49.90
2022-10-12T06:33:50.938Z,40.13
2022-10-12T06:34:47.524Z,27.17
2022-10-12T06:35:44.096Z,27.92
2022-10-12T06:36:40.829Z,27.77
2022-10-12T06:37:49.616Z,22.45
2022-10-12T06:38:46.787Z,17.45
2022-10-12T06:39:43.398Z,14.80
2022-10-12T06:40:39.987Z,13.45
2022-10-12T06:41:36.570Z,19.88
2022-10-12T06:42:33.160Z,14.95
2022-10-12T06:43:29.778Z,14.57
2022-10-12T06:44:26.392Z,15.57
2022-10-12T06:45:23.091Z,14.95
2022-10-12T06:46:19.688Z,15.77
2022-10-12T06:47:16.270Z,13.32
2022-10-12T06:48:17.607Z,16.77
2022-10-12T06:49:15.400Z,14.95
2022-10-12T06:50:12.434Z,17.52
2022-10-12T06:51:09.033Z,14.35
2022-10-12T06:52:05.738Z,15.57
2022-10-12T06:53:02.416Z,13.88
2022-10-12T06:53:59.118Z,16.50
2022-10-12T06:54:55.732Z,15.55
2022-10-12T06:55:52.290Z,19.92
2022-10-12T06:56:48.931Z,18.45
2022-10-12T06:57:45.561Z,13.38
2022-10-12T06:58:42.180Z,14.68
2022-10-12T06:59:38.757Z,16.38
2022-10-12T07:00:35.630Z,13.68
2022-10-12T07:01:32.423Z,14.10
2022-10-12T07:02:29.046Z,14.23
2022-10-12T07:03:25.648Z,14.75
2022-10-12T07:04:22.203Z,15.10
2022-10-12T07:05:19.249Z,12.45
2022-10-12T07:06:16.155Z,16.65
2022-10-12T07:07:12.746Z,15.02
2022-10-12T07:08:09.463Z,14.20
2022-10-12T07:09:06.064Z,17.33
2022-10-12T07:10:04.702Z,17.40
2022-10-12T07:11:02.605Z,15.40
2022-10-12T07:11:59.250Z,18.52
2022-10-12T07:12:56.045Z,20.48
2022-10-12T07:13:52.688Z,23.02
2022-10-12T07:14:49.340Z,20.90
2022-10-12T07:15:50.308Z,13.63
2022-10-12T07:16:50.492Z,15.73
2022-10-12T07:17:49.710Z,18.10
2022-10-12T07:18:46.338Z,16.77
2022-10-12T07:19:43.201Z,15.50
2022-10-12T07:20:40.500Z,18.95
2022-10-12T07:21:37.580Z,18.98
2022-10-12T07:22:34.761Z,19.13
2022-10-12T07:23:32.661Z,16.65
2022-10-12T07:24:36.337Z,18.38
2022-10-12T07:25:33.023Z,18.08
2022-10-12T07:26:29.630Z,17.45
2022-10-12T07:27:26.313Z,15.38
2022-10-12T07:28:23.625Z,16.92
2022-10-12T07:29:20.214Z,16.20
2022-10-12T07:30:16.879Z,14.85
2022-10-12T07:31:13.533Z,14.75
2022-10-12T07:32:10.226Z,15.90
2022-10-12T07:33:06.916Z,17.23
2022-10-12T07:34:03.642Z,14.60
2022-10-12T07:35:00.291Z,18.05
2022-10-12T07:36:13.203Z,20.55
2022-10-12T07:37:10.580Z,18.20
2022-10-12T07:38:07.167Z,18.83
2022-10-12T07:39:03.827Z,18.15
2022-10-12T07:40:00.376Z,16.95
2022-10-12T07:41:04.216Z,18.42
2022-10-12T07:42:00.902Z,22.85
2022-10-12T07:43:15.339Z,22.45
2022-10-12T07:44:12.939Z,22.20
2022-10-12T07:45:09.668Z,21.15
2022-10-12T07:46:07.047Z,21.48
2022-10-12T07:47:03.689Z,21.77
2022-10-12T07:48:00.289Z,22.10
2022-10-12T07:48:57.824Z,20.17
2022-10-12T07:49:54.394Z,19.42
2022-10-12T07:50:51.115Z,18.25
2022-10-12T07:51:47.772Z,18.67
2022-10-12T07:52:44.347Z,19.00
2022-10-12T07:53:40.971Z,19.15
2022-10-12T07:54:37.573Z,13.80
2022-10-12T07:55:34.251Z,14.45
2022-10-12T07:56:30.913Z,12.93
2022-10-12T07:57:27.646Z,17.08
2022-10-12T07:58:24.443Z,16.85
2022-10-12T07:59:21.177Z,16.30
2022-10-12T08:00:18.136Z,17.48
2022-10-12T08:01:14.938Z,18.98
2022-10-12T08:02:12.407Z,16.67
2022-10-12T08:03:09.073Z,16.95
2022-10-12T08:04:05.692Z,16.50
2022-10-12T08:05:02.295Z,19.83
2022-10-12T08:05:58.889Z,23.75
2022-10-12T08:06:55.625Z,15.95
2022-10-12T08:07:52.814Z,17.52
2022-10-12T08:08:50.361Z,15.15
2022-10-12T08:09:48.447Z,15.25
2022-10-12T08:10:45.063Z,15.50
2022-10-12T08:11:42.336Z,21.02
2022-10-12T08:12:38.915Z,15.35
2022-10-12T08:13:35.768Z,13.73
2022-10-12T08:14:32.687Z,16.63
2022-10-12T08:15:29.542Z,15.88
2022-10-12T08:16:26.194Z,16.65
2022-10-12T08:17:22.774Z,15.55
2022-10-12T08:18:19.346Z,15.70
2022-10-12T08:19:16.063Z,13.55
2022-10-12T08:20:12.819Z,13.38
2022-10-12T08:21:11.170Z,17.88
2022-10-12T08:22:08.212Z,17.63
2022-10-12T08:23:04.780Z,16.00
2022-10-12T08:24:01.403Z,18.45
2022-10-12T08:24:58.005Z,16.88
2022-10-12T08:25:56.544Z,19.95
2022-10-12T08:26:53.089Z,19.75
2022-10-12T08:27:49.636Z,15.18
2022-10-12T08:28:46.408Z,17.33
2022-10-12T08:29:43.163Z,22.17
2022-10-12T08:30:39.828Z,15.63
2022-10-12T08:31:36.538Z,17.77
2022-10-12T08:32:33.190Z,16.98
2022-10-12T08:33:30.073Z,16.95
2022-10-12T08:34:26.662Z,14.32
2022-10-12T08:35:23.225Z,19.25
2022-10-12T08:36:19.882Z,16.83
2022-10-12T08:37:16.464Z,18.23
2022-10-12T08:38:13.713Z,18.15
2022-10-12T08:39:10.316Z,21.27
2022-10-12T08:40:07.593Z,17.90
2022-10-12T08:41:18.660Z,18.55
2022-10-12T08:42:32.340Z,16.35
2022-10-12T08:43:38.141Z,17.17
2022-10-12T08:44:45.603Z,18.30
2022-10-12T08:45:54.692Z,20.80
2022-10-12T08:46:59.375Z,20.73
2022-10-12T08:48:01.956Z,21.35
2022-10-12T08:49:05.338Z,17.15
2022-10-12T08:50:04.879Z,18.38
2022-10-12T08:51:06.782Z,17.58
2022-10-12T08:52:06.835Z,19.67
2022-10-12T08:53:17.589Z,18.27
2022-10-12T08:54:17.447Z,20.15
2022-10-12T08:55:26.464Z,15.35
2022-10-12T08:56:23.439Z,18.17
2022-10-12T08:57:20.332Z,21.38
2022-10-12T08:58:20.737Z,17.67
2022-10-12T08:59:18.950Z,18.65
2022-10-12T09:00:16.117Z,16.73
2022-10-12T09:01:31.062Z,15.75
2022-10-12T09:03:08.625Z,17.17
2022-10-12T09:04:27.050Z,20.35
2022-10-12T09:05:33.799Z,15.65
2022-10-12T09:06:37.947Z,17.60
2022-10-12T09:07:47.984Z,19.95
2022-10-12T09:09:06.228Z,18.42
2022-10-12T09:10:21.260Z,19.45
2022-10-12T09:11:20.579Z,16.98
2022-10-12T09:12:43.956Z,16.73
2022-10-12T09:14:10.080Z,22.58
2022-10-12T09:15:15.214Z,36.58
2022-10-12T09:16:23.623Z,22.40
2022-10-12T09:17:30.269Z,15.95
2022-10-12T09:18:40.413Z,11.45
2022-10-12T09:19:41.150Z,20.05
2022-10-12T09:20:47.389Z,19.83
2022-10-12T09:21:47.177Z,13.70
2022-10-12T09:22:49.338Z,16.52
2022-10-12T09:23:47.334Z,14.80
2022-10-12T09:24:45.405Z,17.80
2022-10-12T09:25:42.737Z,15.35
2022-10-12T09:26:42.089Z,14.73
2022-10-12T09:27:44.963Z,17.67
2022-10-12T09:28:54.591Z,13.70
2022-10-12T09:29:57.680Z,21.13
2022-10-12T09:31:32.733Z,15.80
2022-10-12T09:32:54.908Z,17.48
2022-10-12T09:33:57.533Z,10.80
2022-10-12T09:34:54.926Z,19.85
2022-10-12T09:35:53.345Z,12.65
2022-10-12T09:36:50.132Z,13.05
2022-10-12T09:37:52.350Z,15.98
2022-10-12T09:38:50.278Z,16.75
2022-10-12T09:39:47.283Z,14.30
2022-10-12T09:40:45.113Z,12.73
2022-10-12T09:41:44.776Z,11.85
2022-10-12T09:42:42.266Z,11.13
2022-10-12T09:43:39.907Z,10.65
2022-10-12T09:44:56.764Z,13.82
2022-10-12T09:45:53.652Z,9.57
2022-10-12T09:46:56.066Z,12.57
2022-10-12T09:48:17.336Z,12.65
2022-10-12T09:49:14.050Z,14.40
2022-10-12T09:50:10.742Z,11.85
2022-10-12T09:51:07.442Z,16.45
2022-10-12T09:52:04.208Z,20.40
2022-10-12T09:53:01.088Z,23.55
2022-10-12T09:54:03.679Z,15.82
2022-10-12T09:55:05.323Z,16.67
2022-10-12T09:56:11.791Z,15.07
2022-10-12T09:57:19.821Z,17.20
2022-10-12T09:58:21.611Z,14.82
2022-10-12T09:59:27.413Z,10.98
2022-10-12T10:00:41.813Z,12.10
2022-10-12T10:01:38.733Z,15.60
2022-10-12T10:02:48.168Z,14.48
2022-10-12T10:03:52.113Z,13.73
2022-10-12T10:04:50.216Z,11.60
2022-10-12T10:05:46.835Z,11.57
2022-10-12T10:06:46.811Z,13.00
2022-10-12T10:07:43.461Z,14.68
2022-10-12T10:08:43.413Z,12.68
2022-10-12T10:09:40.388Z,14.45
2022-10-12T10:10:37.041Z,16.02
2022-10-12T10:11:36.046Z,11.50
2022-10-12T10:12:33.372Z,16.10
2022-10-12T10:13:32.457Z,10.45
2022-10-12T10:14:35.834Z,12.05
2022-10-12T10:15:36.012Z,10.90
2022-10-12T10:16:32.677Z,18.05
2022-10-12T10:17:32.667Z,14.15
2022-10-12T10:18:32.198Z,16.83
2022-10-12T10:19:28.948Z,15.38
2022-10-12T10:20:33.492Z,27.58
2022-10-12T10:21:36.380Z,13.60
2022-10-12T10:22:33.344Z,14.88
2022-10-12T10:23:32.790Z,12.70
2022-10-12T10:24:32.157Z,18.15
2022-10-12T10:25:28.833Z,14.88
2022-10-12T10:26:27.550Z,20.27
2022-10-12T10:27:37.163Z,11.30
2022-10-12T10:28:45.330Z,15.38
2022-10-12T10:29:43.821Z,16.38
2022-10-12T10:30:41.420Z,18.02
2022-10-12T10:31:38.227Z,14.55
2022-10-12T10:32:35.053Z,14.35
2022-10-12T10:33:34.684Z,14.73
2022-10-12T10:34:31.341Z,17.05
2022-10-12T10:35:27.988Z,20.35
2022-10-12T10:36:27.091Z,13.68
2022-10-12T10:37:23.842Z,19.80
2022-10-12T10:38:20.464Z,17.10
2022-10-12T10:39:46.678Z,13.55
2022-10-12T10:40:51.209Z,13.15
2022-10-12T10:41:49.448Z,14.32
2022-10-12T10:42:51.279Z,16.70
2022-10-12T10:43:48.929Z,14.63
2022-10-12T10:44:57.199Z,27.00
2022-10-12T10:45:57.880Z,20.40
2022-10-12T10:47:02.602Z,20.60
2022-10-12T10:48:08.735Z,15.88
2022-10-12T10:49:07.531Z,31.50
2022-10-12T10:50:09.706Z,19.88
2022-10-12T10:51:07.324Z,14.65
2022-10-12T10:52:06.735Z,14.80
2022-10-12T10:53:08.571Z,20.40
2022-10-12T10:54:23.876Z,13.00
2022-10-12T10:55:22.573Z,13.35
2022-10-12T10:56:24.309Z,18.05
2022-10-12T10:57:23.700Z,29.20
2022-10-12T10:58:30.099Z,26.33
2022-10-12T10:59:42.334Z,30.85
2022-10-12T11:00:43.763Z,26.45
2022-10-12T11:01:46.464Z,23.45
2022-10-12T11:03:55.993Z,14.32
2022-10-12T11:05:00.818Z,22.65
2022-10-12T11:06:33.746Z,20.05
2022-10-12T11:07:56.892Z,34.35
2022-10-12T11:09:04.620Z,21.35
2022-10-12T11:10:09.954Z,25.58
2022-10-12T11:11:15.326Z,16.58
2022-10-12T11:12:30.343Z,27.00
2022-10-12T11:13:36.526Z,23.67
2022-10-12T11:14:44.763Z,14.73
2022-10-12T11:15:52.260Z,15.95
2022-10-12T11:17:00.055Z,16.48
2022-10-12T11:18:11.240Z,45.38
2022-10-12T11:19:38.504Z,20.95
2022-10-12T11:20:46.997Z,15.73
2022-10-12T11:21:51.483Z,21.83
2022-10-12T11:22:58.713Z,13.40
2022-10-12T11:24:05.196Z,14.63
2022-10-12T11:25:12.787Z,14.25
2022-10-12T11:26:12.430Z,18.63
2022-10-12T11:27:09.038Z,18.08
2022-10-12T11:28:08.088Z,40.72
2022-10-12T11:29:06.128Z,38.75
2022-10-12T11:30:12.949Z,22.42
2022-10-12T11:31:19.834Z,16.55
2022-10-12T11:32:34.783Z,22.35
2022-10-12T11:33:39.361Z,28.08
2022-10-12T11:34:48.590Z,30.65
2022-10-12T11:35:46.380Z,36.40
2022-10-12T11:37:07.498Z,35.08
2022-10-12T11:38:15.355Z,18.02
2022-10-12T11:39:31.164Z,20.45
2022-10-12T11:42:20.458Z,13.80
2022-10-12T11:43:22.775Z,20.65
2022-10-12T11:44:52.269Z,16.30
2022-10-12T11:45:53.112Z,19.02
2022-10-12T11:46:56.309Z,20.05
2022-10-12T11:48:00.146Z,21.77
2022-10-12T11:49:01.948Z,18.38
2022-10-12T11:50:10.532Z,15.48
2022-10-12T11:51:07.413Z,23.55
2022-10-12T11:52:11.148Z,15.68
2022-10-12T11:53:34.769Z,20.25
2022-10-12T11:54:59.905Z,22.42
2022-10-12T11:56:11.372Z,23.33
2022-10-12T11:57:17.996Z,18.10
2022-10-12T11:58:59.988Z,22.90
2022-10-12T12:00:16.569Z,20.75
2022-10-12T12:01:29.701Z,25.10
2022-10-12T12:03:56.267Z,23.73
2022-10-12T12:04:53.879Z,23.20
2022-10-12T12:05:50.834Z,25.73
2022-10-12T12:06:59.713Z,27.95
2022-10-12T12:07:57.107Z,22.48
2022-10-12T12:08:53.731Z,24.38
2022-10-12T12:09:51.638Z,21.60
2022-10-12T12:11:04.158Z,36.05
2022-10-12T12:12:13.110Z,35.47
2022-10-12T12:13:13.178Z,35.80
2022-10-12T12:14:21.814Z,18.45
2022-10-12T12:15:22.926Z,22.75
2022-10-12T12:16:19.559Z,23.50
2022-10-12T12:17:18.777Z,32.10
2022-10-12T12:18:21.650Z,23.45
2022-10-12T12:19:41.687Z,34.63
2022-10-12T12:20:44.382Z,50.05
2022-10-12T12:22:18.373Z,35.30
2022-10-12T12:23:41.392Z,27.73
2022-10-12T12:24:39.266Z,43.88
2022-10-12T12:25:37.029Z,46.70
2022-10-12T12:26:34.020Z,34.80
2022-10-12T12:27:35.188Z,40.38
2022-10-12T12:28:32.897Z,34.80
2022-10-12T12:29:29.961Z,40.05
2022-10-12T12:30:37.185Z,30.23
2022-10-12T12:31:34.205Z,30.63
2022-10-12T12:33:00.034Z,34.25
2022-10-12T12:34:13.526Z,45.75
2022-10-12T12:35:19.160Z,26.35
2022-10-12T12:36:29.764Z,31.10
2022-10-12T12:37:31.993Z,33.28
2022-10-12T12:38:50.978Z,24.98
2022-10-12T12:39:54.210Z,32.83
2022-10-12T12:41:06.763Z,27.33
2022-10-12T12:42:06.931Z,24.05
2022-10-12T12:43:29.834Z,28.10
2022-10-12T12:44:42.886Z,37.58
2022-10-12T12:46:52.071Z,30.77
2022-10-12T12:47:48.718Z,26.20
2022-10-12T12:48:45.238Z,29.35
2022-10-12T12:49:52.471Z,20.80
2022-10-12T12:50:50.530Z,35.80
2022-10-12T12:51:47.351Z,32.67
2022-10-12T12:52:44.154Z,36.20
2022-10-12T12:53:48.657Z,31.52
2022-10-12T12:55:14.355Z,36.35
2022-10-12T12:56:38.812Z,34.65
2022-10-12T12:57:56.750Z,27.88
2022-10-12T12:58:58.168Z,19.73
2022-10-12T13:00:06.662Z,32.58
2022-10-12T13:01:15.368Z,31.10
2022-10-12T13:02:36.591Z,29.80
2022-10-12T13:03:48.328Z,36.85
2022-10-12T13:05:12.760Z,33.70
2022-10-12T13:06:27.964Z,33.95
2022-10-12T13:07:36.366Z,25.42
2022-10-12T13:08:54.611Z,33.35
2022-10-12T13:09:57.635Z,30.20
2022-10-12T13:11:28.722Z,29.98
2022-10-12T13:13:02.048Z,28.17
2022-10-12T13:13:58.719Z,23.73
2022-10-12T13:15:04.348Z,20.50
2022-10-12T13:16:07.065Z,20.17